createdAt,value
2018-01-31T01:53:11.593Z,84.10
2018-01-31T01:55:15.393Z,81.27
2018-01-31T01:57:19.308Z,80.60
2018-01-31T01:59:23.379Z,79.50
2018-01-31T02:01:27.210Z,75.90
2018-01-31T02:03:30.989Z,73.73
2018-01-31T02:05:34.829Z,70.80
2018-01-31T02:07:39.370Z,69.30
2018-01-31T02:09:43.365Z,65.20
2018-01-31T02:11:47.158Z,65.93
2018-01-31T02:13:50.957Z,63.43
2018-01-31T02:15:54.984Z,63.13
2018-01-31T02:17:58.749Z,62.73
2018-01-31T02:20:02.597Z,59.40
2018-01-31T02:22:06.356Z,57.53
2018-01-31T02:24:10.523Z,57.50
2018-01-31T02:26:14.325Z,58.27
2018-01-31T02:28:18.119Z,56.47
2018-01-31T02:30:22.149Z,53.50
2018-01-31T02:32:26.299Z,52.80
2018-01-31T02:34:30.074Z,49.43
2018-01-31T02:36:33.868Z,51.83
2018-01-31T02:38:46.813Z,49.40
2018-01-31T02:40:50.551Z,49.43
2018-01-31T02:42:54.755Z,47.37
2018-01-31T02:44:58.545Z,45.10
2018-01-31T02:47:02.682Z,44.63
2018-01-31T02:49:06.456Z,44.03
2018-01-31T02:51:10.219Z,42.90
2018-01-31T02:53:13.985Z,42.20
2018-01-31T02:55:18.033Z,40.13
2018-01-31T02:57:22.329Z,39.73
2018-01-31T02:59:26.556Z,40.40
2018-01-31T03:01:30.873Z,39.03
2018-01-31T03:03:35.908Z,36.40
2018-01-31T03:05:40.211Z,36.77
2018-01-31T03:07:44.541Z,36.07
2018-01-31T03:09:49.086Z,35.60
2018-01-31T03:11:54.023Z,32.30
2018-01-31T03:13:58.178Z,32.37
2018-01-31T03:16:02.619Z,32.67
2018-01-31T03:18:07.162Z,33.00
2018-01-31T03:20:11.537Z,32.30
2018-01-31T03:22:15.852Z,31.17
2018-01-31T03:24:20.129Z,32.03
2018-01-31T03:26:24.537Z,30.97
2018-01-31T03:28:28.821Z,30.67
2018-01-31T03:30:33.079Z,31.03
2018-01-31T03:32:37.437Z,28.97
2018-01-31T03:34:41.633Z,26.10
2018-01-31T03:36:45.698Z,27.70
2018-01-31T03:38:49.988Z,27.23
2018-01-31T03:40:54.122Z,25.63
2018-01-31T03:42:59.273Z,24.20
2018-01-31T03:45:04.368Z,25.10
2018-01-31T03:47:08.653Z,25.83
2018-01-31T03:49:12.687Z,24.73
2018-01-31T03:51:16.903Z,24.57
2018-01-31T03:53:21.141Z,21.43
2018-01-31T03:55:25.709Z,21.97
2018-01-31T03:57:30.194Z,23.07
2018-01-31T03:59:34.464Z,21.47
2018-01-31T04:01:38.892Z,21.00
2018-01-31T04:03:43.209Z,20.43
2018-01-31T04:05:47.549Z,20.60
2018-01-31T04:07:51.513Z,20.10
2018-01-31T04:09:55.522Z,20.90
2018-01-31T04:12:01.479Z,18.70
2018-01-31T04:14:05.688Z,19.33
2018-01-31T04:16:09.814Z,18.77
2018-01-31T04:18:14.118Z,17.00
2018-01-31T04:20:18.913Z,18.40
2018-01-31T04:22:22.943Z,18.27
2018-01-31T04:24:27.277Z,17.60
2018-01-31T04:26:31.472Z,17.00
2018-01-31T04:28:35.916Z,17.87
2018-01-31T04:30:40.057Z,17.53
2018-01-31T04:32:44.253Z,15.40
2018-01-31T04:34:48.342Z,15.57
2018-01-31T04:36:52.804Z,15.23
2018-01-31T04:38:57.189Z,13.70
2018-01-31T04:41:01.509Z,15.10
2018-01-31T04:43:05.741Z,14.60
2018-01-31T04:45:10.171Z,14.70
2018-01-31T04:47:14.657Z,13.90
2018-01-31T04:49:18.765Z,13.13
2018-01-31T04:51:22.986Z,13.90
2018-01-31T04:53:27.612Z,13.23
2018-01-31T04:55:31.603Z,12.90
2018-01-31T04:57:35.379Z,12.00
2018-01-31T04:59:39.420Z,12.73
2018-01-31T05:01:43.884Z,12.50
2018-01-31T05:03:47.873Z,12.03
2018-01-31T05:05:52.233Z,11.87
2018-01-31T05:07:56.554Z,11.47
2018-01-31T05:10:00.822Z,11.20
2018-01-31T05:12:05.128Z,11.07
2018-01-31T05:14:09.347Z,11.13
2018-01-31T05:16:13.682Z,10.77
2018-01-31T05:18:17.841Z,10.27
2018-01-31T05:20:22.091Z,10.73
2018-01-31T05:22:26.530Z,11.13
2018-01-31T05:24:30.688Z,9.80
2018-01-31T05:26:34.910Z,10.27
2018-01-31T05:28:39.021Z,10.30
2018-01-31T05:30:43.336Z,10.20
2018-01-31T05:32:47.667Z,10.37
2018-01-31T05:34:51.881Z,9.50
2018-01-31T05:36:56.172Z,9.30
2018-01-31T05:39:00.165Z,9.73
2018-01-31T05:41:04.218Z,9.23
2018-01-31T05:43:08.325Z,9.70
2018-01-31T05:45:12.153Z,9.90
2018-01-31T05:47:16.320Z,9.33
2018-01-31T05:49:20.435Z,9.10
2018-01-31T05:51:24.868Z,8.80
2018-01-31T05:53:30.443Z,8.40
2018-01-31T05:55:34.509Z,7.53
2018-01-31T05:57:38.415Z,8.03
2018-01-31T05:59:42.982Z,8.87
2018-01-31T06:01:46.821Z,8.20
2018-01-31T06:03:50.774Z,8.60
2018-01-31T06:05:54.824Z,7.40
2018-01-31T06:07:59.035Z,8.03
2018-01-31T06:10:03.184Z,8.07
2018-01-31T06:12:07.195Z,8.20
2018-01-31T06:14:11.127Z,7.33
2018-01-31T06:16:15.175Z,7.50
2018-01-31T06:18:19.308Z,7.37
2018-01-31T06:20:23.256Z,7.70
2018-01-31T06:22:27.012Z,7.83
2018-01-31T06:24:31.086Z,6.87
2018-01-31T06:26:34.946Z,7.30
2018-01-31T06:28:38.704Z,6.97
2018-01-31T06:30:42.478Z,7.40
2018-01-31T06:32:46.517Z,7.20
2018-01-31T06:34:50.685Z,6.83
2018-01-31T06:36:54.986Z,6.90
2018-01-31T06:38:59.217Z,6.63
2018-01-31T06:41:03.616Z,6.63
2018-01-31T06:43:07.404Z,6.47
2018-01-31T06:45:11.542Z,6.00
2018-01-31T06:47:15.583Z,5.70
2018-01-31T06:49:19.663Z,6.17
2018-01-31T06:51:23.391Z,6.53
2018-01-31T06:53:27.121Z,6.23
2018-01-31T06:55:31.061Z,6.27
2018-01-31T06:57:35.155Z,5.80
2018-01-31T06:59:38.922Z,5.87
2018-01-31T07:01:42.726Z,6.10
2018-01-31T07:03:46.719Z,7.53
2018-01-31T07:05:51.418Z,250.60
2018-01-31T07:07:55.185Z,650.07
2018-01-31T07:09:59.751Z,564.87
2018-01-31T07:12:05.175Z,526.00
2018-01-31T07:14:09.251Z,457.43
2018-01-31T07:16:13.624Z,406.17
2018-01-31T07:18:17.595Z,389.80
2018-01-31T07:20:21.438Z,369.60
2018-01-31T07:22:25.761Z,350.20
2018-01-31T07:24:29.863Z,345.40
2018-01-31T07:26:35.091Z,317.30
2018-01-31T07:28:38.983Z,306.53
2018-01-31T07:30:43.098Z,287.20
2018-01-31T07:32:46.969Z,276.13
2018-01-31T07:34:50.985Z,265.83
2018-01-31T07:36:55.097Z,250.93
2018-01-31T07:38:59.313Z,232.63
2018-01-31T07:41:03.172Z,222.60
2018-01-31T07:43:07.659Z,213.80
2018-01-31T07:45:12.179Z,205.87
2018-01-31T07:47:16.636Z,202.83
2018-01-31T07:49:21.405Z,195.93
2018-01-31T07:51:25.433Z,296.07
2018-01-31T07:53:29.531Z,544.93
2018-01-31T07:55:33.847Z,602.07
2018-01-31T07:57:37.961Z,700.43
2018-01-31T07:59:42.514Z,672.50
2018-01-31T08:01:46.367Z,705.03
2018-01-31T08:03:50.141Z,699.37
2018-01-31T08:05:54.260Z,593.60
2018-01-31T08:07:58.532Z,541.47
2018-01-31T08:10:02.625Z,666.97
2018-01-31T08:12:06.501Z,517.77
2018-01-31T08:14:10.584Z,602.13
2018-01-31T08:16:15.100Z,478.57
2018-01-31T08:18:18.970Z,505.30
2018-01-31T08:20:22.892Z,529.57
2018-01-31T08:22:26.906Z,434.47
2018-01-31T08:24:31.049Z,499.30
2018-01-31T08:26:35.335Z,441.63
2018-01-31T08:28:39.563Z,417.13
2018-01-31T08:30:47.418Z,390.50
2018-01-31T08:32:51.550Z,446.47
2018-01-31T08:34:55.506Z,939.30
2018-01-31T08:37:00.046Z,720.33
2018-01-31T08:39:05.067Z,493.87
2018-01-31T08:41:10.777Z,431.03
2018-01-31T08:43:16.219Z,346.90
2018-01-31T08:45:21.348Z,321.60
2018-01-31T08:47:27.554Z,302.40
2018-01-31T08:49:31.983Z,287.60
2018-01-31T08:51:36.580Z,275.90
2018-01-31T08:54:43.313Z,273.77
2018-01-31T08:56:47.324Z,637.07
2018-01-31T08:58:51.418Z,636.77
2018-01-31T09:00:55.201Z,672.67
2018-01-31T09:02:59.313Z,617.80
2018-01-31T09:05:03.802Z,585.43
2018-01-31T09:07:07.617Z,576.77
2018-01-31T09:09:11.401Z,575.10
2018-01-31T09:11:15.433Z,560.33
2018-01-31T09:13:19.413Z,539.83
2018-01-31T09:15:23.289Z,526.57
2018-01-31T09:17:27.476Z,519.17
2018-01-31T09:19:31.546Z,510.67
2018-01-31T09:21:35.459Z,494.03
2018-01-31T09:23:39.259Z,487.10
2018-01-31T09:25:43.374Z,476.33
2018-01-31T09:27:47.165Z,452.70
2018-01-31T09:29:50.959Z,438.77
2018-01-31T09:31:54.878Z,437.93
2018-01-31T09:33:59.105Z,416.27
2018-01-31T09:36:02.897Z,413.30
2018-01-31T09:38:07.105Z,386.50
2018-01-31T09:40:11.822Z,383.57
2018-01-31T09:42:15.682Z,529.33
2018-01-31T09:44:20.693Z,679.63
2018-01-31T09:46:24.522Z,382.63
2018-01-31T09:48:28.548Z,350.80
2018-01-31T09:50:32.586Z,706.50
2018-01-31T09:52:36.394Z,757.50
2018-01-31T09:54:40.476Z,557.70
2018-01-31T09:56:44.483Z,476.00
2018-01-31T09:58:48.526Z,347.17
2018-01-31T10:00:52.581Z,307.20
2018-01-31T10:02:57.531Z,317.43
2018-01-31T10:05:02.112Z,326.33
2018-01-31T10:07:06.487Z,288.97
2018-01-31T10:09:10.552Z,862.97
2018-01-31T10:11:14.855Z,269.30
2018-01-31T10:13:19.094Z,251.30
2018-01-31T10:15:23.225Z,252.80
2018-01-31T10:17:27.175Z,594.53
2018-01-31T10:19:31.714Z,679.57
2018-01-31T10:21:35.938Z,411.77
2018-01-31T10:23:40.087Z,511.77
2018-01-31T10:25:43.897Z,797.73
2018-01-31T10:27:48.578Z,374.50
2018-01-31T10:29:52.493Z,316.87
2018-01-31T10:31:57.757Z,275.50
2018-01-31T10:34:02.935Z,243.93
2018-01-31T10:36:07.320Z,264.97
2018-01-31T10:38:12.242Z,441.60
2018-01-31T10:40:16.063Z,362.80
2018-01-31T10:42:19.969Z,433.43
2018-01-31T10:44:24.123Z,337.07
2018-01-31T10:46:29.723Z,334.00
2018-01-31T10:48:33.822Z,352.70
2018-01-31T10:50:38.414Z,551.87
2018-01-31T10:52:42.369Z,846.43
2018-01-31T10:58:55.726Z,188.43
2018-01-31T11:00:59.611Z,144.40
2018-01-31T11:03:03.954Z,130.27
2018-01-31T11:05:07.768Z,129.17
2018-01-31T11:07:11.631Z,121.50
2018-01-31T11:09:16.272Z,115.03
2018-01-31T11:11:20.141Z,116.43
2018-01-31T11:13:23.942Z,116.30
2018-01-31T11:15:28.206Z,104.27
2018-01-31T11:17:32.660Z,999.90
2018-01-31T11:19:36.771Z,999.90
2018-01-31T11:21:40.636Z,274.87
2018-01-31T11:23:44.918Z,608.30
2018-01-31T11:25:50.167Z,999.90
2018-01-31T11:27:53.968Z,637.57
2018-01-31T11:29:58.307Z,301.45
2018-01-31T11:32:02.243Z,78.60
2018-01-31T11:34:06.484Z,59.60
2018-01-31T11:36:10.403Z,246.40
2018-01-31T11:38:15.946Z,236.53
2018-01-31T11:40:20.902Z,91.77
2018-01-31T11:42:31.205Z,26.90
2018-01-31T11:44:35.795Z,319.70
2018-01-31T11:46:41.442Z,41.73
2018-01-31T11:48:45.621Z,227.17
2018-01-31T11:50:49.510Z,344.07
2018-01-31T11:52:54.031Z,28.97
2018-01-31T11:54:58.277Z,20.67
2018-01-31T11:57:04.235Z,14.03
2018-01-31T11:59:09.631Z,12.90
2018-01-31T12:01:13.509Z,10.30
2018-01-31T12:03:19.026Z,10.60
2018-01-31T12:05:23.330Z,10.00
2018-01-31T12:07:28.946Z,9.10
2018-01-31T12:09:39.847Z,7.80
2018-01-31T12:11:43.889Z,7.10
2018-01-31T12:13:57.523Z,14.73
2018-01-31T12:16:25.577Z,20.90
2018-01-31T12:18:40.052Z,8.13
2018-01-31T12:21:47.535Z,4.33
2018-01-31T12:24:02.464Z,3.47
2018-01-31T12:26:17.328Z,3.33
2018-01-31T12:30:36.193Z,5.43
2018-01-31T12:34:55.933Z,326.40
2018-01-31T12:37:10.972Z,3.13
2018-01-31T12:39:13.585Z,69.13
2018-01-31T12:41:16.114Z,161.83
2018-01-31T12:43:19.009Z,3.00
2018-01-31T12:45:21.944Z,14.43
2018-01-31T12:48:02.062Z,3.10
2018-01-31T12:52:19.516Z,54.37
2018-01-31T12:54:42.306Z,23.43
2018-01-31T12:56:58.946Z,36.50
2018-01-31T12:59:11.599Z,3.83
2018-01-31T13:03:28.753Z,1.40
2018-01-31T13:05:41.455Z,1.43
2018-01-31T13:10:01.501Z,1.03
2018-01-31T13:12:16.354Z,1.00
2018-01-31T13:16:32.007Z,0.97
2018-01-31T13:18:47.142Z,1.27
2018-01-31T13:23:03.904Z,157.10
2018-01-31T13:27:22.116Z,846.13
2018-01-31T13:29:26.145Z,2.30
2018-01-31T13:33:46.161Z,1.30
2018-01-31T13:36:01.330Z,1.30
2018-01-31T13:40:18.392Z,1.07
2018-01-31T13:42:37.655Z,1.00
2018-01-31T13:45:51.173Z,1.30
2018-01-31T13:50:11.161Z,1.63
2018-01-31T13:56:35.065Z,1.00
2018-01-31T13:58:49.729Z,1.37
2018-01-31T14:03:07.789Z,1.57
2018-01-31T14:07:28.002Z,2.37
2018-01-31T14:10:40.718Z,108.97
2018-01-31T14:12:55.813Z,11.10
2018-01-31T14:15:14.659Z,2.40
2018-01-31T14:17:29.413Z,1.77
2018-01-31T14:20:44.805Z,1.53
2018-01-31T14:23:57.916Z,1.40
2018-01-31T14:27:12.163Z,1.20
2018-01-31T14:29:27.240Z,1.33
2018-01-31T14:31:42.206Z,1.47
2018-01-31T14:36:04.247Z,1.50
2018-01-31T14:38:06.825Z,1.30
2018-01-31T14:40:09.243Z,1.60
2018-01-31T14:42:11.926Z,1.00
2018-01-31T14:44:14.364Z,1.10
2018-01-31T14:46:16.793Z,1.20
2018-01-31T14:48:19.496Z,1.10
2018-01-31T14:50:22.036Z,1.53
2018-01-31T14:52:24.502Z,1.20
2018-01-31T14:54:27.331Z,1.20
2018-01-31T14:56:29.779Z,1.33
2018-01-31T14:58:32.222Z,1.37
2018-01-31T15:00:34.994Z,1.00
2018-01-31T15:02:37.468Z,1.30
2018-01-31T15:04:39.940Z,1.20
2018-01-31T15:06:42.626Z,1.47
2018-01-31T15:08:45.112Z,1.57
2018-01-31T15:10:47.919Z,1.50
2018-01-31T15:12:50.838Z,1.33
2018-01-31T15:14:53.426Z,1.40
2018-01-31T15:16:55.918Z,1.50
2018-01-31T15:18:58.650Z,1.40
2018-01-31T15:21:01.166Z,1.30
2018-01-31T15:23:03.760Z,1.37
2018-01-31T15:25:06.413Z,1.10
2018-01-31T15:27:08.862Z,1.30
2018-01-31T15:29:11.362Z,1.30
2018-01-31T15:31:14.114Z,1.90
2018-01-31T15:33:16.576Z,1.47
2018-01-31T15:35:19.074Z,1.83
2018-01-31T15:37:22.024Z,1.40
2018-01-31T15:39:24.469Z,1.60
2018-01-31T15:41:27.289Z,1.50
2018-01-31T15:43:29.997Z,1.43
2018-01-31T15:45:32.585Z,1.63
2018-01-31T15:47:35.032Z,1.10
2018-01-31T15:49:37.804Z,1.43
2018-01-31T15:51:40.380Z,1.43
2018-01-31T15:53:43.067Z,1.20
2018-01-31T15:55:45.865Z,1.30
2018-01-31T15:57:48.404Z,1.07
2018-01-31T15:59:50.875Z,1.10
2018-01-31T16:01:53.680Z,1.30
2018-01-31T16:03:56.184Z,1.50
2018-01-31T16:05:58.744Z,1.40
2018-01-31T16:08:01.521Z,1.33
2018-01-31T16:10:04.734Z,1.63
2018-01-31T16:12:07.265Z,1.70
2018-01-31T16:14:09.976Z,1.63
2018-01-31T16:16:12.497Z,1.50
2018-01-31T16:18:25.170Z,1.30
2018-01-31T16:21:00.195Z,1.87
2018-01-31T16:23:04.134Z,1.77
2018-01-31T16:25:08.914Z,1.43
2018-01-31T16:27:22.138Z,1.67
2018-01-31T16:30:05.628Z,1.73
2018-01-31T16:34:20.649Z,1.90
2018-01-31T16:36:28.111Z,2.00
2018-01-31T16:38:32.976Z,2.00
2018-01-31T16:40:38.644Z,1.90
2018-01-31T16:42:42.681Z,2.07
2018-01-31T16:44:46.482Z,2.17
2018-01-31T16:46:51.113Z,2.30
2018-01-31T16:48:54.924Z,1.83
2018-01-31T16:51:26.910Z,2.10
2018-01-31T16:53:31.022Z,1.77
2018-01-31T16:55:34.871Z,1.80
2018-01-31T16:57:38.704Z,2.50
2018-01-31T16:59:43.138Z,1.90
2018-01-31T17:01:47.124Z,2.00
2018-01-31T17:03:50.940Z,2.07
2018-01-31T17:05:55.166Z,2.07
2018-01-31T17:07:58.924Z,1.90
2018-01-31T17:10:02.963Z,1.80
2018-01-31T17:12:07.403Z,2.20
2018-01-31T17:14:11.210Z,2.00
2018-01-31T17:16:15.123Z,1.70
2018-01-31T17:18:19.217Z,1.80
2018-01-31T17:20:23.095Z,1.77
2018-01-31T17:22:26.894Z,2.00
2018-01-31T17:24:30.966Z,1.70
2018-01-31T17:26:38.197Z,1.60
2018-01-31T17:28:42.187Z,1.90
2018-01-31T17:30:46.397Z,1.60
2018-01-31T17:32:51.273Z,1.83
2018-01-31T17:34:55.228Z,1.80
2018-01-31T17:37:00.136Z,1.50
2018-01-31T17:39:04.488Z,1.60
2018-01-31T17:41:08.789Z,1.33
2018-01-31T17:43:13.164Z,1.87
2018-01-31T17:45:17.162Z,1.73
2018-01-31T17:47:21.143Z,1.77
2018-01-31T17:49:45.521Z,1.47
2018-01-31T17:51:49.367Z,1.70
2018-01-31T17:53:53.187Z,1.43
2018-01-31T17:55:57.289Z,1.60
2018-01-31T17:58:01.035Z,1.50
2018-01-31T18:00:06.203Z,1.67
2018-01-31T18:02:10.325Z,1.60
2018-01-31T18:04:14.121Z,1.57
2018-01-31T18:06:17.981Z,1.90
2018-01-31T18:08:22.030Z,2.00
2018-01-31T18:10:25.838Z,1.70
2018-01-31T18:12:29.645Z,1.80
2018-01-31T18:14:33.712Z,1.80
2018-01-31T18:16:37.540Z,2.30
2018-01-31T18:18:41.329Z,2.27
2018-01-31T18:20:45.364Z,2.00
2018-01-31T18:22:49.261Z,1.50
2018-01-31T18:24:53.022Z,1.80
2018-01-31T18:26:57.072Z,1.80
2018-01-31T18:29:00.837Z,1.60
2018-01-31T18:31:04.754Z,2.70
2018-01-31T18:33:09.085Z,2.30
2018-01-31T18:35:12.889Z,2.20
2018-01-31T18:37:16.671Z,2.50
2018-01-31T18:39:20.927Z,2.60
2018-01-31T18:41:24.703Z,2.80
2018-01-31T18:43:28.472Z,2.80
2018-01-31T18:45:32.532Z,2.03
2018-01-31T18:47:36.258Z,1.77
2018-01-31T18:49:40.008Z,2.20
2018-01-31T18:51:44.433Z,1.93
2018-01-31T18:53:48.533Z,1.90
2018-01-31T18:55:52.629Z,2.20
2018-01-31T18:57:56.763Z,2.10
2018-01-31T19:00:02.016Z,1.70
2018-01-31T19:02:06.540Z,1.73
2018-01-31T19:04:10.817Z,2.13
2018-01-31T19:06:14.621Z,1.53
2018-01-31T19:08:18.402Z,1.63
2018-01-31T19:10:22.885Z,1.90
2018-01-31T19:12:27.122Z,1.60
2018-01-31T19:14:31.181Z,1.33
2018-01-31T19:16:35.558Z,1.57
2018-01-31T19:18:39.878Z,1.63
2018-01-31T19:20:44.909Z,1.50
2018-01-31T19:22:49.524Z,1.60
2018-01-31T19:24:53.542Z,1.30
2018-01-31T19:26:57.512Z,1.30
2018-01-31T19:29:01.786Z,1.20
2018-01-31T19:31:05.569Z,1.10
2018-01-31T19:33:09.598Z,1.33
2018-01-31T19:35:13.673Z,1.30
2018-01-31T19:37:17.441Z,1.27
2018-01-31T19:39:21.329Z,0.80
2018-01-31T19:41:25.426Z,1.30
2018-01-31T19:43:32.209Z,1.20
2018-01-31T19:45:36.379Z,1.43
2018-01-31T19:47:40.418Z,1.10
2018-01-31T19:49:44.639Z,1.13
2018-01-31T19:51:48.604Z,1.20
2018-01-31T19:53:53.050Z,1.27
2018-01-31T19:55:56.853Z,1.20
2018-01-31T19:58:00.689Z,0.80
2018-01-31T20:00:04.878Z,0.90
2018-01-31T20:02:08.894Z,1.13
2018-01-31T20:04:12.684Z,0.97
2018-01-31T20:06:16.783Z,0.90
2018-01-31T20:08:20.639Z,0.97
2018-01-31T20:10:24.929Z,0.90
2018-01-31T20:12:29.327Z,0.90
2018-01-31T20:14:33.727Z,0.83
2018-01-31T20:16:37.800Z,0.70
2018-01-31T20:18:41.874Z,0.87
2018-01-31T20:20:45.795Z,0.50
2018-01-31T20:22:49.662Z,1.10
2018-01-31T20:24:53.701Z,0.80
2018-01-31T20:26:57.461Z,0.60
2018-01-31T20:29:01.206Z,0.57
2018-01-31T20:31:05.378Z,0.50
2018-01-31T20:33:09.610Z,0.50
2018-01-31T20:35:13.550Z,0.60
2018-01-31T20:37:17.637Z,0.50
2018-01-31T20:39:21.494Z,0.50
2018-01-31T20:41:25.309Z,0.50
2018-01-31T20:43:29.371Z,0.60
2018-01-31T20:45:33.254Z,0.50
2018-01-31T20:47:37.044Z,0.50
2018-01-31T20:49:41.098Z,0.43
2018-01-31T20:51:44.934Z,0.60
2018-01-31T20:53:48.734Z,0.60
2018-01-31T20:55:52.788Z,0.80
2018-01-31T20:57:56.553Z,0.60
2018-01-31T21:00:00.343Z,0.60
2018-01-31T21:02:04.425Z,0.50
2018-01-31T21:04:08.216Z,0.50
2018-01-31T21:06:11.966Z,0.50
2018-01-31T21:08:16.613Z,0.57
2018-01-31T21:10:20.554Z,0.53
2018-01-31T21:12:24.439Z,0.60
2018-01-31T21:14:28.537Z,0.60
2018-01-31T21:16:33.801Z,0.60
2018-01-31T21:18:37.732Z,0.90
2018-01-31T21:20:41.769Z,0.50
2018-01-31T21:22:45.542Z,0.60
2018-01-31T21:24:49.603Z,0.60
2018-01-31T21:26:53.648Z,0.63
2018-01-31T21:28:57.534Z,0.50
2018-01-31T21:31:01.291Z,0.50
2018-01-31T21:33:05.485Z,0.53
2018-01-31T21:35:10.862Z,0.73
2018-01-31T21:37:14.646Z,0.50
2018-01-31T21:39:19.203Z,0.50
2018-01-31T21:41:23.277Z,0.40
2018-01-31T21:43:27.079Z,0.40
2018-01-31T21:45:31.888Z,0.50
2018-01-31T21:47:36.448Z,0.40
2018-01-31T21:49:40.504Z,0.50
2018-01-31T21:51:46.086Z,0.57
2018-01-31T21:53:50.706Z,0.60
2018-01-31T21:55:55.107Z,0.50
2018-01-31T21:57:59.290Z,0.60
2018-01-31T22:00:03.484Z,0.80
2018-01-31T22:02:07.942Z,0.50
2018-01-31T22:04:13.456Z,0.70
2018-01-31T22:06:17.353Z,0.50
2018-01-31T22:10:18.934Z,0.50
2018-01-31T22:12:22.908Z,0.60
2018-01-31T22:14:26.837Z,0.67
2018-01-31T22:16:35.127Z,0.73
2018-01-31T22:18:39.078Z,0.60
2018-01-31T22:20:42.980Z,0.90
2018-01-31T22:22:47.177Z,0.70
2018-01-31T22:24:51.943Z,0.57
2018-01-31T22:26:56.009Z,0.60
2018-01-31T22:29:00.402Z,61.27
2018-01-31T22:31:04.983Z,280.20
2018-01-31T22:33:08.986Z,165.97
2018-01-31T22:35:12.870Z,206.23
2018-01-31T22:37:16.979Z,207.97
2018-01-31T22:39:21.849Z,147.83
2018-01-31T22:41:25.922Z,142.00
2018-01-31T22:43:32.234Z,142.63
2018-01-31T22:45:36.016Z,115.23
2018-01-31T22:47:39.829Z,92.17
2018-01-31T22:49:44.625Z,94.13
2018-01-31T22:51:48.423Z,80.80
2018-01-31T22:53:52.347Z,75.70
2018-01-31T22:55:57.077Z,69.33
2018-01-31T22:58:01.013Z,63.93
2018-01-31T23:00:05.429Z,54.07
2018-01-31T23:02:09.541Z,45.50
2018-01-31T23:04:13.403Z,47.93
2018-01-31T23:06:17.514Z,38.90
2018-01-31T23:08:21.603Z,38.70
2018-01-31T23:10:25.802Z,33.57
2018-01-31T23:12:29.716Z,39.60
2018-01-31T23:14:37.997Z,28.80
2018-01-31T23:16:41.797Z,26.13
2018-01-31T23:18:45.609Z,24.23
2018-01-31T23:20:49.681Z,21.53
2018-01-31T23:22:53.487Z,20.80
2018-01-31T23:24:57.490Z,18.67
2018-01-31T23:27:01.818Z,17.17
2018-01-31T23:29:05.617Z,15.17
2018-01-31T23:31:09.391Z,17.87
2018-01-31T23:33:43.939Z,15.23
2018-01-31T23:35:48.269Z,12.87
2018-01-31T23:37:52.167Z,11.57
2018-01-31T23:39:56.243Z,10.33
2018-01-31T23:42:00.248Z,9.50
2018-01-31T23:44:04.074Z,9.20
2018-01-31T23:46:08.306Z,9.53
2018-01-31T23:48:12.700Z,8.40
2018-01-31T23:50:16.821Z,7.10
2018-01-31T23:52:21.131Z,5.70
2018-01-31T23:54:24.990Z,6.50
2018-01-31T23:56:30.247Z,6.57
2018-01-31T23:58:34.353Z,4.97
